Aleppo, Syria
Current Conditions -  °F | °C
As of 10:50 AM on Friday 24 Oct 2014 (Local Time) from LTDA Reporting Station
Clear Clear  
Wind Chill: 72°   Ceiling: Unl
Heat Index: 72°   Visibility: 6mi
Dew Point: 52°   Wind: 1mph
Humidity: 50%   Direction: NA
Pressure: 30.09"   Gusts: NA
Location:  36.23°N, 37.17°E
Report Text: LTDA 240750Z VRB01KT CAVOK 22/11 Q1019
Loading
Personal Weather Stations






























Interactive Weather Map
Tropical Storm Tracking
New forecast layout! Learn more

10-Day Weather Forecast

Advertisements
Track Severe Weather on mobile